San Antonio, Florida
Current Conditions -  °F | °C
As of 12:55 AM on Sunday 23 Nov 2014 (Local Time) from KZPH Reporting Station
Drizzle Drizzle  
Wind Chill: 70°   Ceiling: 1500
Heat Index: 70°   Visibility: 4mi
Dew Point: 68°   Wind: 0mph
Humidity: 94%   Direction: NA
Pressure: 30.07"   Gusts: NA
Location:  28.34°N, 82.27°W
Report Text: KZPH 230555Z AUTO 00000KT 4SM -DZ BKN015 BKN020 OVC029 21/20 A3007 RMK AO2 P0001
Loading
Personal Weather Stations






























Interactive Weather Map New forecast layout! Learn more

10-Day Weather Forecast

Advertisements
Track Severe Weather on mobile